createdAt,value
2019-06-10T00:00:42.384Z,12.57
2019-06-10T00:03:12.499Z,12.61
2019-06-10T00:05:42.628Z,12.59
2019-06-10T00:08:12.876Z,12.58
2019-06-10T00:10:43.015Z,12.61
2019-06-10T00:13:13.137Z,12.67
2019-06-10T00:15:43.273Z,12.75
2019-06-10T00:18:34.082Z,12.81
2019-06-10T00:20:45.235Z,12.81
2019-06-10T00:23:15.707Z,12.86
2019-06-10T00:25:45.843Z,12.87
2019-06-10T00:28:15.969Z,12.90
2019-06-10T00:30:46.109Z,12.95
2019-06-10T00:33:16.239Z,12.98
2019-06-10T00:35:46.371Z,13.02
2019-06-10T00:38:16.490Z,13.05
2019-06-10T00:40:46.635Z,13.08
2019-06-10T00:43:16.771Z,13.09
2019-06-10T00:45:47.095Z,13.10
2019-06-10T00:48:28.294Z,13.12
2019-06-10T00:50:51.810Z,13.12
2019-06-10T00:53:22.021Z,13.05
2019-06-10T00:55:52.608Z,12.99
2019-06-10T00:58:22.743Z,12.96
2019-06-10T01:00:52.883Z,12.94
2019-06-10T01:03:23.031Z,12.91
2019-06-10T01:05:53.159Z,12.94
2019-06-10T01:08:23.275Z,12.93
2019-06-10T01:10:53.810Z,12.91
2019-06-10T01:13:23.967Z,12.91
2019-06-10T01:15:54.199Z,12.90
2019-06-10T01:18:34.732Z,12.87
2019-06-10T01:20:56.151Z,12.90
2019-06-10T01:23:26.328Z,12.90
2019-06-10T01:25:56.467Z,12.92
2019-06-10T01:28:26.579Z,12.92
2019-06-10T01:30:56.716Z,12.94
2019-06-10T01:33:26.835Z,12.94
2019-06-10T01:35:56.955Z,12.92
2019-06-10T01:38:27.075Z,12.94
2019-06-10T01:40:57.215Z,12.98
2019-06-10T01:43:27.340Z,12.97
2019-06-10T01:45:57.671Z,12.89
2019-06-10T01:48:40.521Z,12.81
2019-06-10T01:51:01.845Z,12.77
2019-06-10T01:53:31.815Z,12.71
2019-06-10T01:56:01.981Z,12.64
2019-06-10T01:58:32.164Z,12.60
2019-06-10T02:01:16.192Z,12.56
2019-06-10T02:03:44.239Z,12.50
2019-06-10T02:06:16.584Z,12.41
2019-06-10T02:08:46.190Z,12.38
2019-06-10T02:11:18.771Z,12.34
2019-06-10T02:13:48.231Z,12.32
2019-06-10T02:16:19.467Z,12.29
2019-06-10T02:19:00.050Z,12.27
2019-06-10T02:21:24.525Z,12.24
2019-06-10T02:23:54.963Z,12.20
2019-06-10T02:26:25.127Z,12.17
2019-06-10T02:28:56.379Z,12.15
2019-06-10T02:31:30.354Z,12.15
2019-06-10T02:33:58.385Z,12.15
2019-06-10T02:36:31.669Z,12.40
2019-06-10T02:39:00.328Z,12.84
2019-06-10T02:41:35.370Z,13.49
2019-06-10T02:44:04.273Z,14.07
2019-06-10T02:46:36.381Z,14.45
2019-06-10T02:49:23.359Z,14.79
2019-06-10T02:51:38.373Z,15.20
2019-06-10T02:54:08.652Z,15.84
2019-06-10T02:56:38.780Z,16.51
2019-06-10T02:59:08.891Z,17.24
2019-06-10T03:01:39.030Z,17.85
2019-06-10T03:04:09.142Z,18.23
2019-06-10T03:06:40.487Z,18.26
2019-06-10T03:09:14.190Z,18.08
2019-06-10T03:11:44.846Z,17.72
2019-06-10T03:14:15.810Z,17.41
2019-06-10T03:16:52.701Z,17.02
2019-06-10T03:19:39.746Z,16.79
2019-06-10T03:21:54.134Z,16.56
2019-06-10T03:24:25.353Z,16.29
2019-06-10T03:26:55.570Z,16.02
2019-06-10T03:29:26.910Z,15.96
2019-06-10T03:31:57.612Z,16.15
2019-06-10T03:34:36.027Z,16.61
2019-06-10T03:37:02.473Z,17.00
2019-06-10T03:39:32.392Z,17.15
2019-06-10T03:42:02.534Z,16.94
2019-06-10T03:44:33.091Z,16.90
2019-06-10T03:47:03.395Z,16.92
2019-06-10T03:49:46.643Z,16.88
2019-06-10T03:52:05.398Z,16.76
2019-06-10T03:54:35.526Z,16.48
2019-06-10T03:57:06.649Z,16.38
2019-06-10T03:59:36.790Z,16.43
2019-06-10T04:02:07.128Z,16.10
2019-06-10T04:04:37.251Z,16.28
2019-06-10T04:07:07.415Z,16.21
2019-06-10T04:09:37.545Z,16.22
2019-06-10T04:12:07.701Z,16.38
2019-06-10T04:14:37.832Z,16.40
2019-06-10T04:17:08.013Z,16.53
2019-06-10T04:19:38.427Z,16.53
2019-06-10T04:22:08.698Z,16.72
2019-06-10T04:24:38.856Z,16.74
2019-06-10T04:27:12.146Z,16.67
2019-06-10T04:29:42.247Z,16.74
2019-06-10T04:32:12.539Z,16.61
2019-06-10T04:34:43.345Z,16.50
2019-06-10T04:37:13.668Z,16.44
2019-06-10T04:39:43.803Z,16.45
2019-06-10T04:42:13.931Z,16.42
2019-06-10T04:44:44.095Z,16.53
2019-06-10T04:47:14.267Z,16.66
2019-06-10T04:49:44.480Z,16.78
2019-06-10T04:52:14.613Z,16.91
2019-06-10T04:54:44.736Z,17.34
2019-06-10T04:57:14.877Z,17.43
2019-06-10T04:59:45.047Z,17.57
2019-06-10T05:02:16.404Z,17.73
2019-06-10T05:04:46.540Z,18.04
2019-06-10T05:07:16.675Z,18.24
2019-06-10T05:09:46.808Z,18.38
2019-06-10T05:12:16.981Z,18.56
2019-06-10T05:14:47.123Z,18.73
2019-06-10T05:17:17.332Z,18.90
2019-06-10T05:19:47.456Z,19.31
2019-06-10T05:22:17.588Z,19.52
2019-06-10T05:24:47.711Z,19.69
2019-06-10T05:27:17.871Z,19.81
2019-06-10T05:29:48.032Z,20.12
2019-06-10T05:32:18.167Z,20.39
2019-06-10T05:34:48.335Z,20.63
2019-06-10T05:37:18.463Z,20.92
2019-06-10T05:39:48.617Z,21.09
2019-06-10T05:42:18.831Z,21.27
2019-06-10T05:44:48.975Z,21.58
2019-06-10T05:47:19.120Z,21.80
2019-06-10T05:49:52.929Z,21.92
2019-06-10T05:52:24.905Z,22.11
2019-06-10T05:54:55.181Z,22.03
2019-06-10T05:57:25.782Z,21.97
2019-06-10T05:59:58.371Z,22.30
2019-06-10T06:02:29.815Z,22.57
2019-06-10T06:05:02.546Z,22.85
2019-06-10T06:07:34.324Z,22.99
2019-06-10T06:10:05.186Z,23.28
2019-06-10T06:12:35.791Z,23.11
2019-06-10T06:15:08.920Z,23.44
2019-06-10T06:17:39.086Z,23.37
2019-06-10T06:20:09.631Z,23.39
2019-06-10T06:22:39.797Z,23.46
2019-06-10T06:25:10.433Z,23.46
2019-06-10T06:27:42.104Z,23.99
2019-06-10T06:30:18.435Z,23.64
2019-06-10T06:32:45.835Z,23.92
2019-06-10T06:35:16.119Z,23.93
2019-06-10T06:37:46.258Z,24.33
2019-06-10T06:40:17.313Z,24.39
2019-06-10T06:42:47.491Z,24.81
2019-06-10T06:45:17.693Z,25.13
2019-06-10T06:47:47.840Z,25.08
2019-06-10T06:50:18.083Z,25.00
2019-06-10T06:53:18.722Z,25.14
2019-06-10T06:55:23.255Z,25.61
2019-06-10T06:57:52.971Z,25.43
2019-06-10T07:00:50.985Z,25.91
2019-06-10T07:03:04.624Z,25.76
2019-06-10T07:05:35.943Z,25.59
2019-06-10T07:08:07.644Z,25.59
2019-06-10T07:10:38.876Z,25.51
2019-06-10T07:13:09.992Z,25.75
2019-06-10T07:15:47.056Z,25.66
2019-06-10T07:18:15.188Z,25.55
2019-06-10T07:20:45.958Z,25.72
2019-06-10T07:23:16.370Z,25.81
2019-06-10T07:25:47.592Z,26.18
2019-06-10T07:28:17.915Z,26.53
2019-06-10T07:30:52.684Z,26.48
2019-06-10T07:33:19.884Z,26.76
2019-06-10T07:35:52.514Z,26.73
2019-06-10T07:38:26.132Z,26.56
2019-06-10T07:40:54.737Z,26.83
2019-06-10T07:43:24.881Z,26.51
2019-06-10T07:45:55.027Z,26.26
2019-06-10T07:48:25.195Z,26.11
2019-06-10T07:50:55.316Z,26.06
2019-06-10T07:53:25.655Z,26.27
2019-06-10T07:55:55.794Z,26.14
2019-06-10T07:58:25.918Z,26.26
2019-06-10T08:00:56.108Z,26.25
2019-06-10T08:03:26.253Z,26.49
2019-06-10T08:05:56.387Z,26.89
2019-06-10T08:08:26.721Z,27.20
2019-06-10T08:10:56.854Z,27.13
2019-06-10T08:13:26.981Z,27.19
2019-06-10T08:15:57.102Z,27.09
2019-06-10T08:18:27.269Z,27.17
2019-06-10T08:20:57.407Z,27.32
2019-06-10T08:23:27.543Z,27.58
2019-06-10T08:25:58.056Z,27.96
2019-06-10T08:28:29.364Z,27.99
2019-06-10T08:30:59.503Z,27.86
2019-06-10T08:33:29.657Z,27.35
2019-06-10T08:36:01.583Z,26.90
2019-06-10T08:38:32.910Z,27.15
2019-06-10T08:41:03.488Z,27.31
2019-06-10T08:43:33.587Z,27.15
2019-06-10T08:46:03.725Z,27.71
2019-06-10T08:48:33.868Z,27.89
2019-06-10T08:51:04.172Z,27.37
2019-06-10T08:53:34.467Z,27.26
2019-06-10T08:56:04.818Z,27.02
2019-06-10T08:58:34.978Z,26.92
2019-06-10T09:01:05.091Z,27.38
2019-06-10T09:03:35.259Z,27.29
2019-06-10T09:06:05.371Z,27.77
2019-06-10T09:08:35.619Z,27.93
2019-06-10T09:11:05.745Z,28.36
2019-06-10T09:13:35.874Z,28.17
2019-06-10T09:16:15.665Z,28.42
2019-06-10T09:18:39.488Z,28.74
2019-06-10T09:21:09.676Z,28.53
2019-06-10T09:23:41.129Z,28.71
2019-06-10T09:26:12.499Z,28.90
2019-06-10T09:28:47.159Z,29.13
2019-06-10T09:31:14.688Z,28.38
2019-06-10T09:33:50.246Z,28.59
2019-06-10T09:36:16.646Z,28.50
2019-06-10T09:38:48.734Z,28.52
2019-06-10T09:41:18.600Z,28.51
2019-06-10T09:43:51.954Z,28.64
2019-06-10T09:46:23.280Z,29.01
2019-06-10T09:48:56.646Z,28.88
2019-06-10T09:51:28.115Z,28.92
2019-06-10T09:54:05.615Z,28.99
2019-06-10T09:56:30.268Z,29.46
2019-06-10T09:59:00.455Z,29.30
2019-06-10T10:01:32.646Z,29.62
2019-06-10T10:04:04.737Z,29.43
2019-06-10T10:06:35.196Z,29.12
2019-06-10T10:09:06.960Z,29.12
2019-06-10T10:11:37.092Z,29.16
2019-06-10T10:14:10.409Z,29.01
2019-06-10T10:16:39.119Z,28.86
2019-06-10T10:19:12.893Z,29.08
2019-06-10T10:21:47.710Z,29.13
2019-06-10T10:24:15.105Z,28.87
2019-06-10T10:26:48.560Z,28.65
2019-06-10T10:29:17.291Z,28.63
2019-06-10T10:31:50.734Z,28.26
2019-06-10T10:34:22.840Z,28.45
2019-06-10T10:36:56.957Z,28.93
2019-06-10T10:39:24.639Z,28.88
2019-06-10T10:41:57.039Z,29.20
2019-06-10T10:44:26.813Z,29.21
2019-06-10T10:46:56.940Z,29.22
2019-06-10T10:49:27.064Z,29.35
2019-06-10T10:51:57.256Z,28.81
2019-06-10T10:54:34.098Z,28.91
2019-06-10T10:57:02.625Z,29.24
2019-06-10T10:59:33.241Z,29.23
2019-06-10T11:02:03.526Z,29.17
2019-06-10T11:04:35.868Z,29.16
2019-06-10T11:07:06.003Z,28.70
2019-06-10T11:09:36.124Z,28.47
2019-06-10T11:12:06.249Z,29.05
2019-06-10T11:14:36.726Z,28.98
2019-06-10T11:17:06.846Z,28.70
2019-06-10T11:19:36.967Z,29.14
2019-06-10T11:22:07.100Z,29.35
2019-06-10T11:24:41.047Z,29.19
2019-06-10T11:27:09.083Z,29.26
2019-06-10T11:29:39.232Z,28.76
2019-06-10T11:32:09.361Z,28.99
2019-06-10T11:34:39.512Z,29.34
2019-06-10T11:37:09.640Z,29.36
2019-06-10T11:39:39.852Z,29.00
2019-06-10T11:42:09.984Z,28.32
2019-06-10T11:44:42.388Z,28.54
2019-06-10T11:47:13.141Z,28.69
2019-06-10T11:49:43.610Z,28.92
2019-06-10T11:52:13.818Z,29.10
2019-06-10T11:54:55.802Z,29.14
2019-06-10T11:57:16.140Z,28.87
2019-06-10T11:59:46.315Z,29.24
2019-06-10T12:02:16.536Z,29.33
2019-06-10T12:04:46.729Z,29.53
2019-06-10T12:07:16.878Z,29.44
2019-06-10T12:09:47.068Z,29.44
2019-06-10T12:12:17.313Z,28.94
2019-06-10T12:14:47.462Z,29.14
2019-06-10T12:17:34.793Z,29.35
2019-06-10T12:19:49.795Z,29.16
2019-06-10T12:22:22.550Z,28.99
2019-06-10T12:25:18.813Z,29.14
2019-06-10T12:27:23.711Z,28.75
2019-06-10T12:29:56.298Z,28.67
2019-06-10T12:32:25.686Z,28.44
2019-06-10T12:34:58.044Z,28.63
2019-06-10T12:37:28.633Z,28.69
2019-06-10T12:40:00.777Z,28.45
2019-06-10T12:42:32.833Z,28.33
2019-06-10T12:45:05.943Z,28.23
2019-06-10T12:47:34.368Z,28.26
2019-06-10T12:50:05.523Z,28.23
2019-06-10T12:52:35.850Z,28.28
2019-06-10T12:55:07.389Z,28.41
2019-06-10T12:57:37.663Z,28.52
2019-06-10T13:00:19.448Z,28.45
2019-06-10T13:02:42.740Z,28.14
2019-06-10T13:05:14.835Z,27.86
2019-06-10T13:07:46.073Z,27.91
2019-06-10T13:10:24.594Z,27.81
2019-06-10T13:12:55.857Z,27.89
2019-06-10T13:15:26.232Z,27.86
2019-06-10T13:17:56.377Z,27.62
2019-06-10T13:20:26.514Z,27.40
2019-06-10T13:22:56.687Z,27.41
2019-06-10T13:25:26.944Z,27.42
2019-06-10T13:27:57.750Z,27.46
2019-06-10T13:30:28.071Z,27.48
2019-06-10T13:33:00.061Z,27.35
2019-06-10T13:35:31.719Z,27.18
2019-06-10T13:38:04.101Z,27.07
2019-06-10T13:40:33.684Z,27.04
2019-06-10T13:43:03.993Z,27.02
2019-06-10T13:45:34.120Z,26.87
2019-06-10T13:48:07.961Z,26.95
2019-06-10T13:50:36.083Z,26.68
2019-06-10T13:53:07.022Z,26.79
2019-06-10T13:55:38.544Z,26.76
2019-06-10T13:58:11.481Z,26.73
2019-06-10T14:00:46.103Z,26.72
2019-06-10T14:03:15.939Z,26.61
2019-06-10T14:05:44.952Z,26.51
2019-06-10T14:08:15.547Z,26.50
2019-06-10T14:10:45.725Z,26.39
2019-06-10T14:13:15.858Z,26.24
2019-06-10T14:15:46.255Z,26.19
2019-06-10T14:18:16.615Z,25.98
2019-06-10T14:20:46.775Z,26.13
2019-06-10T14:23:17.674Z,26.08
2019-06-10T14:25:48.031Z,26.08
2019-06-10T14:28:36.813Z,26.14
2019-06-10T14:30:50.002Z,26.24
2019-06-10T14:33:20.173Z,26.21
2019-06-10T14:35:53.100Z,26.22
2019-06-10T14:38:22.353Z,25.99
2019-06-10T14:40:52.788Z,25.91
2019-06-10T14:43:23.762Z,25.91
2019-06-10T14:45:53.877Z,26.00
2019-06-10T14:48:24.006Z,25.91
2019-06-10T14:50:54.190Z,25.78
2019-06-10T14:53:24.311Z,25.75
2019-06-10T14:55:55.254Z,25.76
2019-06-10T14:58:25.388Z,25.48
2019-06-10T15:00:55.566Z,25.47
2019-06-10T15:03:26.217Z,25.35
2019-06-10T15:05:56.444Z,25.49
2019-06-10T15:08:26.613Z,25.61
2019-06-10T15:10:56.765Z,25.45
2019-06-10T15:13:26.904Z,25.30
2019-06-10T15:15:57.072Z,25.21
2019-06-10T15:18:27.200Z,25.24
2019-06-10T15:20:57.474Z,25.28
2019-06-10T15:23:28.542Z,25.17
2019-06-10T15:26:02.557Z,25.34
2019-06-10T15:28:31.626Z,25.36
2019-06-10T15:31:02.996Z,25.27
2019-06-10T15:33:33.441Z,25.28
2019-06-10T15:36:03.591Z,25.26
2019-06-10T15:38:33.753Z,25.10
2019-06-10T15:41:04.068Z,25.15
2019-06-10T15:43:34.196Z,25.23
2019-06-10T15:46:04.435Z,25.31
2019-06-10T15:48:34.579Z,25.25
2019-06-10T15:51:04.847Z,25.22
2019-06-10T15:53:34.976Z,25.21
2019-06-10T15:56:17.979Z,25.10
2019-06-10T15:58:38.869Z,24.94
2019-06-10T16:01:09.036Z,25.00
2019-06-10T16:03:39.180Z,25.10
2019-06-10T16:06:09.326Z,25.13
2019-06-10T16:08:39.487Z,25.15
2019-06-10T16:11:09.642Z,25.17
2019-06-10T16:13:39.772Z,25.10
2019-06-10T16:16:09.948Z,25.13
2019-06-10T16:18:42.142Z,25.05
2019-06-10T16:21:13.330Z,24.98
2019-06-10T16:23:43.876Z,24.95
2019-06-10T16:26:14.924Z,25.03
2019-06-10T16:28:45.874Z,24.99
2019-06-10T16:31:16.724Z,25.05
2019-06-10T16:33:49.442Z,25.16
2019-06-10T16:36:18.985Z,25.22
2019-06-10T16:38:49.200Z,25.11
2019-06-10T16:41:19.524Z,25.13
2019-06-10T16:43:52.113Z,25.15
2019-06-10T16:46:22.433Z,25.24
2019-06-10T16:48:52.898Z,25.08
2019-06-10T16:51:23.710Z,25.25
2019-06-10T16:53:53.862Z,25.35
2019-06-10T16:56:26.015Z,25.28
2019-06-10T16:58:56.123Z,25.39
2019-06-10T17:01:28.440Z,25.30
2019-06-10T17:03:58.106Z,25.22
2019-06-10T17:06:29.953Z,25.05
2019-06-10T17:09:00.147Z,25.05
2019-06-10T17:11:30.533Z,24.81
2019-06-10T17:14:02.963Z,24.89
2019-06-10T17:16:32.581Z,24.93
2019-06-10T17:19:02.716Z,24.91
2019-06-10T17:21:34.700Z,24.81
2019-06-10T17:24:04.892Z,24.86
2019-06-10T17:26:38.066Z,24.88
2019-06-10T17:29:06.860Z,24.77
2019-06-10T17:31:37.019Z,24.73
2019-06-10T17:34:07.140Z,24.75
2019-06-10T17:36:37.295Z,24.68
2019-06-10T17:39:08.959Z,24.54
2019-06-10T17:41:39.176Z,24.56
2019-06-10T17:44:09.306Z,24.49
2019-06-10T17:46:39.440Z,24.49
2019-06-10T17:49:09.583Z,24.43
2019-06-10T17:51:39.728Z,24.43
2019-06-10T17:54:12.936Z,24.37
2019-06-10T17:56:44.242Z,24.35
2019-06-10T17:59:14.348Z,24.30
2019-06-10T18:01:44.484Z,24.13
2019-06-10T18:04:14.618Z,24.05
2019-06-10T18:06:44.840Z,24.01
2019-06-10T18:09:14.977Z,23.82
2019-06-10T18:11:45.181Z,23.79
2019-06-10T18:14:15.304Z,23.87
2019-06-10T18:16:45.455Z,23.87
2019-06-10T18:19:15.575Z,23.85
2019-06-10T18:21:45.720Z,23.80
2019-06-10T18:24:20.572Z,23.80
2019-06-10T18:26:48.776Z,23.74
2019-06-10T18:29:18.911Z,23.70
2019-06-10T18:31:49.064Z,23.66
2019-06-10T18:34:19.247Z,23.63
2019-06-10T18:36:49.379Z,23.60
2019-06-10T18:39:19.504Z,23.56
2019-06-10T18:41:49.667Z,23.50
2019-06-10T18:44:24.136Z,23.48
2019-06-10T18:46:51.627Z,23.48
2019-06-10T18:49:22.749Z,23.45
2019-06-10T18:51:53.299Z,23.44
2019-06-10T18:54:23.543Z,23.43
2019-06-10T18:56:53.867Z,23.38
2019-06-10T18:59:23.992Z,23.38
2019-06-10T19:01:54.204Z,23.15
2019-06-10T19:04:24.778Z,23.16
2019-06-10T19:06:54.916Z,23.19
2019-06-10T19:09:25.077Z,23.20
2019-06-10T19:11:55.227Z,23.19
2019-06-10T19:14:25.368Z,23.17
2019-06-10T19:16:55.689Z,23.12
2019-06-10T19:19:25.858Z,23.06
2019-06-10T19:22:05.175Z,22.98
2019-06-10T19:24:30.971Z,22.90
2019-06-10T19:27:05.310Z,22.74
2019-06-10T19:29:40.949Z,22.60
2019-06-10T19:32:06.485Z,22.46
2019-06-10T19:34:37.488Z,22.31
2019-06-10T19:37:07.705Z,22.19
2019-06-10T19:39:44.220Z,22.07
2019-06-10T19:42:09.696Z,21.98
2019-06-10T19:44:43.178Z,21.90
2019-06-10T19:47:13.157Z,21.80
2019-06-10T19:49:44.862Z,21.67
2019-06-10T19:52:15.253Z,21.49
2019-06-10T19:54:46.478Z,21.35
2019-06-10T19:57:16.619Z,21.20
2019-06-10T20:00:03.572Z,21.09
2019-06-10T20:02:22.355Z,21.00
2019-06-10T20:04:52.913Z,20.93
2019-06-10T20:07:24.184Z,20.81
2019-06-10T20:09:54.327Z,20.68
2019-06-10T20:12:24.471Z,20.54
2019-06-10T20:14:56.803Z,20.42
2019-06-10T20:17:26.534Z,20.32
2019-06-10T20:19:56.687Z,20.21
2019-06-10T20:22:26.971Z,20.03
2019-06-10T20:24:57.129Z,19.78
2019-06-10T20:27:27.447Z,19.64
2019-06-10T20:30:07.848Z,19.54
2019-06-10T20:32:29.388Z,19.36
2019-06-10T20:35:02.788Z,19.36
2019-06-10T20:37:32.651Z,19.32
2019-06-10T20:40:03.565Z,19.16
2019-06-10T20:42:34.121Z,19.05
2019-06-10T20:45:05.155Z,18.95
2019-06-10T20:47:35.416Z,18.80
2019-06-10T20:50:05.588Z,18.70
2019-06-10T20:52:35.973Z,18.59
2019-06-10T20:55:06.703Z,18.49
2019-06-10T20:57:50.072Z,18.40
2019-06-10T21:00:19.704Z,18.35
2019-06-10T21:02:45.566Z,18.25
2019-06-10T21:05:14.892Z,18.14
2019-06-10T21:07:47.231Z,18.07
2019-06-10T21:10:22.300Z,18.00
2019-06-10T21:12:52.584Z,17.89
2019-06-10T21:15:22.903Z,17.78
2019-06-10T21:17:53.116Z,17.60
2019-06-10T21:20:23.244Z,17.47
2019-06-10T21:22:53.629Z,17.44
2019-06-10T21:25:23.815Z,17.34
2019-06-10T21:27:54.247Z,17.32
2019-06-10T21:30:37.637Z,17.23
2019-06-10T21:32:56.325Z,17.15
2019-06-10T21:35:26.448Z,17.05
2019-06-10T21:37:56.687Z,17.02
2019-06-10T21:40:26.807Z,16.94
2019-06-10T21:42:57.077Z,16.82
2019-06-10T21:45:27.232Z,16.70
2019-06-10T21:47:57.364Z,16.65
2019-06-10T21:50:27.481Z,16.61
2019-06-10T21:52:57.613Z,16.56
2019-06-10T21:55:27.730Z,16.43
2019-06-10T21:57:57.871Z,16.28
2019-06-10T22:00:52.699Z,16.20
2019-06-10T22:03:12.728Z,16.15
2019-06-10T22:05:44.276Z,16.08
2019-06-10T22:08:15.027Z,16.01
2019-06-10T22:10:45.935Z,15.95
2019-06-10T22:13:17.258Z,15.82
2019-06-10T22:15:48.356Z,15.77
2019-06-10T22:18:18.585Z,15.75
2019-06-10T22:20:48.928Z,15.72
2019-06-10T22:23:19.169Z,15.74
2019-06-10T22:25:49.321Z,15.71
2019-06-10T22:28:19.548Z,15.62
2019-06-10T22:30:49.652Z,15.52
2019-06-10T22:33:19.812Z,15.50
2019-06-10T22:35:54.519Z,15.47
2019-06-10T22:38:23.841Z,15.41
2019-06-10T22:40:55.763Z,15.33
2019-06-10T22:43:25.831Z,15.26
2019-06-10T22:45:57.240Z,15.16
2019-06-10T22:48:27.466Z,15.09
2019-06-10T22:50:57.637Z,15.03
2019-06-10T22:53:27.788Z,14.99
2019-06-10T22:55:59.246Z,14.99
2019-06-10T22:58:30.530Z,14.98
2019-06-10T23:01:00.653Z,14.96
2019-06-10T23:03:30.795Z,14.92
2019-06-10T23:06:02.587Z,14.90
2019-06-10T23:08:33.511Z,14.85
2019-06-10T23:11:04.579Z,14.77
2019-06-10T23:13:34.817Z,14.70
2019-06-10T23:16:05.066Z,14.59
2019-06-10T23:18:35.239Z,14.57
2019-06-10T23:21:05.385Z,14.56
2019-06-10T23:23:35.498Z,14.56
2019-06-10T23:26:05.619Z,14.52
2019-06-10T23:28:35.840Z,14.51
2019-06-10T23:31:06.102Z,14.49
2019-06-10T23:33:36.298Z,14.48
2019-06-10T23:36:07.419Z,14.48
2019-06-10T23:38:37.563Z,14.43
2019-06-10T23:41:07.696Z,14.41
2019-06-10T23:43:37.847Z,14.41
2019-06-10T23:46:07.978Z,14.43
2019-06-10T23:48:38.134Z,14.44
2019-06-10T23:51:08.255Z,14.42
2019-06-10T23:53:38.419Z,14.39
2019-06-10T23:56:08.540Z,14.45
2019-06-10T23:58:38.691Z,14.48
